Time;durP1;ratioP1;P1;durP2;ratioP2;P2;SDS_P1;SDS_P2;PMS_P1;PMS_P2;Temp;Humidity;BMP_temperature;BMP_pressure;BME280_temperature;BME280_humidity;BME280_pressure;Samples;Min_cycle;Max_cycle;Signal;HPM_P1;HPM_P2
2021/10/06 00:02:24;;;;;;;;;;;;;;;;;;4985169;28;19968;-66
2021/10/06 00:04:49;;;;;;;;;;;;;;;;;;4998813;28;19933;-67
2021/10/06 00:07:14;;;;;;;;;;;;;;;;;;4986274;28;19917;-67
2021/10/06 00:09:39;;;;;;;;;;;;;;;;;;5000751;28;19914;-67
2021/10/06 00:12:05;;;;;;;;;;;;;;;;;;5000701;28;19917;-67
2021/10/06 00:14:30;;;;;;;;;;;;;;;;;;5000490;28;20252;-67
2021/10/06 00:16:55;;;;;;;;;;;;;;;;;;5000252;28;19918;-68
2021/10/06 00:19:20;;;;;;;;;;;;;;;;;;5003229;28;19921;-67
2021/10/06 00:21:45;;;;;;;;;;;;;;;;;;4999220;28;19922;-66
2021/10/06 00:24:11;;;;;;;;;;;;;;;;;;4965970;28;19917;-65
2021/10/06 00:26:36;;;;;;;;;;;;;;;;;;4998266;28;19914;-66
2021/10/06 00:29:01;;;;;;;;;;;;;;;;;;5002138;28;19924;-65
2021/10/06 00:31:26;;;;;;;;;;;;;;;;;;5000034;28;19963;-66
2021/10/06 00:33:51;;;;;;;;;;;;;;;;;;5001604;28;20003;-66
2021/10/06 00:36:17;;;;;;;;;;;;;;;;;;4989842;28;20309;-66
2021/10/06 00:38:42;;;;;;;;;;;;;;;;;;5001146;28;20410;-66
2021/10/06 00:41:07;;;;;;;;;;;;;;;;;;5000537;28;19922;-66
2021/10/06 00:43:32;;;;;;;;;;;;;;;;;;4999916;28;19922;-66
2021/10/06 00:45:57;;;;;;;;;;;;;;;;;;5001635;28;20458;-66
2021/10/06 00:48:23;;;;;;;;;;;;;;;;;;5000101;28;20093;-66
2021/10/06 00:50:48;;;;;;;;;;;;;;;;;;4998483;28;19937;-66
2021/10/06 00:53:13;;;;;;;;;;;;;;;;;;5001496;28;20290;-66
2021/10/06 00:55:38;;;;;;;;;;;;;;;;;;4964351;28;19917;-66
2021/10/06 00:58:04;;;;;;;;;;;;;;;;;;5000436;28;19964;-66
2021/10/06 01:00:29;;;;;;;;;;;;;;;;;;4998030;28;19952;-66
2021/10/06 01:02:54;;;;;;;;;;;;;;;;;;5000872;28;19929;-67
2021/10/06 01:05:19;;;;;;;;;;;;;;;;;;5000118;28;20032;-66
2021/10/06 01:07:44;;;;;;;;;;;;;;;;;;4988002;28;19917;-66
2021/10/06 01:10:10;;;;;;;;;;;;;;;;;;4983192;28;19917;-66
2021/10/06 01:12:35;;;;;;;;;;;;;;;;;;4987711;28;19979;-67
2021/10/06 01:15:00;;;;;;;;;;;;;;;;;;4987441;28;19917;-66
2021/10/06 01:17:25;;;;;;;;;;;;;;;;;;4984944;28;19929;-66
2021/10/06 01:19:50;;;;;;;;;;;;;;;;;;4993307;28;19922;-66
2021/10/06 01:22:16;;;;;;;;;;;;;;;;;;4999715;28;20796;-66
2021/10/06 01:24:41;;;;;;;;;;;;;;;;;;5008865;28;20053;-66
2021/10/06 01:27:06;;;;;;;;;;;;;;;;;;5011490;28;19924;-67
2021/10/06 01:29:31;;;;;;;;;;;;;;;;;;5012668;28;20013;-67
2021/10/06 01:31:56;;;;;;;;;;;;;;;;;;5014354;28;19945;-66
2021/10/06 01:34:22;;;;;;;;;;;;;;;;;;5017177;28;20268;-66
2021/10/06 01:36:48;;;;;;;;;;;;;;;;;;5011225;28;19913;-67
2021/10/06 01:39:13;;;;;;;;;;;;;;;;;;5001064;28;19972;-66
2021/10/06 01:41:39;;;;;;;;;;;;;;;;;;5010725;28;19921;-67
2021/10/06 01:44:04;;;;;;;;;;;;;;;;;;5012735;28;19917;-66
2021/10/06 01:46:30;;;;;;;;;;;;;;;;;;5013251;28;19923;-66
2021/10/06 01:48:55;;;;;;;;;;;;;;;;;;5011761;28;19918;-67
2021/10/06 01:51:20;;;;;;;;;;;;;;;;;;5010734;28;19918;-66
2021/10/06 01:53:45;;;;;;;;;;;;;;;;;;5008335;28;19960;-69
2021/10/06 01:56:11;;;;;;;;;;;;;;;;;;5007221;28;19917;-66
2021/10/06 01:58:36;;;;;;;;;;;;;;;;;;5011006;28;19943;-66
2021/10/06 02:01:01;;;;;;;;;;;;;;;;;;5001186;28;19928;-67
2021/10/06 02:03:27;;;;;;;;;;;;;;;;;;5010898;28;19937;-66
2021/10/06 02:05:52;;;;;;;;;;;;;;;;;;4998968;28;19921;-66
2021/10/06 02:08:17;;;;;;;;;;;;;;;;;;5014600;28;19925;-66
2021/10/06 02:10:43;;;;;;;;;;;;;;;;;;5010694;28;19921;-66
2021/10/06 02:13:11;;;;;;;;;;;;;;;;;;5012671;28;19983;-67
2021/10/06 02:15:36;;;;;;;;;;;;;;;;;;5009100;28;19968;-67
2021/10/06 02:18:01;;;;;;;;;;;;;;;;;;5000565;28;19917;-67
2021/10/06 02:20:26;;;;;;;;;;;;;;;;;;5011420;28;19922;-67
2021/10/06 02:22:52;;;;;;;;;;;;;;;;;;5007272;28;19928;-66
2021/10/06 02:25:17;;;;;;;;;;;;;;;;;;5010440;28;19949;-66
2021/10/06 02:27:42;;;;;;;;;;;;;;;;;;5010883;28;19918;-67
2021/10/06 02:30:07;;;;;;;;;;;;;;;;;;4992702;28;19917;-66
2021/10/06 02:32:33;;;;;;;;;;;;;;;;;;5008678;28;19925;-66
2021/10/06 02:34:58;;;;;;;;;;;;;;;;;;4998323;28;19917;-66
2021/10/06 02:37:23;;;;;;;;;;;;;;;;;;4983676;28;19914;-66
2021/10/06 02:39:49;;;;;;;;;;;;;;;;;;4998697;28;19922;-67
2021/10/06 02:42:14;;;;;;;;;;;;;;;;;;4993328;28;19932;-66
2021/10/06 02:44:40;;;;;;;;;;;;;;;;;;4976920;28;20416;-67
2021/10/06 02:47:05;;;;;;;;;;;;;;;;;;4995491;28;19920;-67
2021/10/06 02:49:31;;;;;;;;;;;;;;;;;;5009619;28;19929;-66
2021/10/06 02:51:56;;;;;;;;;;;;;;;;;;4999514;28;19917;-67
2021/10/06 02:54:21;;;;;;;;;;;;;;;;;;5012295;28;19918;-66
2021/10/06 02:56:46;;;;;;;;;;;;;;;;;;5010679;28;19921;-66
2021/10/06 02:59:12;;;;;;;;;;;;;;;;;;4998224;28;19945;-67
2021/10/06 03:01:37;;;;;;;;;;;;;;;;;;5016612;28;19989;-66
2021/10/06 03:04:02;;;;;;;;;;;;;;;;;;4999816;28;19948;-67
2021/10/06 03:06:27;;;;;;;;;;;;;;;;;;5007181;28;19920;-68
2021/10/06 03:08:54;;;;;;;;;;;;;;;;;;5013454;28;19968;-66
2021/10/06 03:11:20;;;;;;;;;;;;;;;;;;4999886;28;19921;-67
2021/10/06 03:13:45;;;;;;;;;;;;;;;;;;5011668;28;19922;-67
2021/10/06 03:16:10;;;;;;;;;;;;;;;;;;5008606;28;19914;-67
2021/10/06 03:18:35;;;;;;;;;;;;;;;;;;4973839;28;19937;-67
2021/10/06 03:21:04;;;;;;;;;;;;;;;;;;5010187;28;19922;-66
2021/10/06 03:23:36;;;;;;;;;;;;;;;;;;4998826;28;19981;-67
2021/10/06 03:26:04;;;;;;;;;;;;;;;;;;5010662;28;20017;-67
2021/10/06 03:28:29;;;;;;;;;;;;;;;;;;5009697;28;19955;-66
2021/10/06 03:30:55;;;;;;;;;;;;;;;;;;4999502;28;19918;-66
2021/10/06 03:33:20;;;;;;;;;;;;;;;;;;4999160;28;19920;-67
2021/10/06 03:35:45;;;;;;;;;;;;;;;;;;5000206;28;19918;-67
2021/10/06 03:38:10;;;;;;;;;;;;;;;;;;5010542;28;19977;-67
2021/10/06 03:40:36;;;;;;;;;;;;;;;;;;4976362;28;20097;-67
2021/10/06 03:43:01;;;;;;;;;;;;;;;;;;5009151;28;19918;-67
2021/10/06 03:45:26;;;;;;;;;;;;;;;;;;5007599;28;19921;-67
2021/10/06 03:47:52;;;;;;;;;;;;;;;;;;5009032;28;20228;-66
2021/10/06 03:50:19;;;;;;;;;;;;;;;;;;5011269;28;20001;-68
2021/10/06 03:52:45;;;;;;;;;;;;;;;;;;5013351;28;19956;-68
2021/10/06 03:55:10;;;;;;;;;;;;;;;;;;4994539;28;19925;-66
2021/10/06 03:57:36;;;;;;;;;;;;;;;;;;5013724;28;20072;-67
2021/10/06 04:00:01;;;;;;;;;;;;;;;;;;5008717;28;19984;-67
2021/10/06 04:02:28;;;;;;;;;;;;;;;;;;5009393;28;19934;-66
2021/10/06 04:04:54;;;;;;;;;;;;;;;;;;5007385;28;19959;-66
2021/10/06 04:07:19;;;;;;;;;;;;;;;;;;5010388;28;19914;-66
2021/10/06 04:09:44;;;;;;;;;;;;;;;;;;4998846;28;19937;-67
2021/10/06 04:12:10;;;;;;;;;;;;;;;;;;4998376;28;19917;-66
2021/10/06 04:14:35;;;;;;;;;;;;;;;;;;5008753;28;19910;-67
2021/10/06 04:17:04;;;;;;;;;;;;;;;;;;4996433;28;20391;-66
2021/10/06 04:19:32;;;;;;;;;;;;;;;;;;5002074;28;19981;-67
2021/10/06 04:21:57;;;;;;;;;;;;;;;;;;5015513;28;19949;-66
2021/10/06 04:24:22;;;;;;;;;;;;;;;;;;5014595;28;20156;-66
2021/10/06 04:26:47;;;;;;;;;;;;;;;;;;5014375;28;19918;-67
2021/10/06 04:29:13;;;;;;;;;;;;;;;;;;5014672;28;19922;-66
2021/10/06 04:31:41;;;;;;;;;;;;;;;;;;5003571;28;19917;-66
2021/10/06 04:34:06;;;;;;;;;;;;;;;;;;5012573;28;19953;-66
2021/10/06 04:36:31;;;;;;;;;;;;;;;;;;5010342;28;19929;-67
2021/10/06 04:38:57;;;;;;;;;;;;;;;;;;5012650;28;19921;-66
2021/10/06 04:41:22;;;;;;;;;;;;;;;;;;5014101;28;19921;-67
2021/10/06 04:43:47;;;;;;;;;;;;;;;;;;5014961;28;19917;-66
2021/10/06 04:46:17;;;;;;;;;;;;;;;;;;4998940;28;19914;-66
2021/10/06 04:48:43;;;;;;;;;;;;;;;;;;5013402;28;19918;-67
2021/10/06 04:51:08;;;;;;;;;;;;;;;;;;5014377;28;19924;-67
2021/10/06 04:53:33;;;;;;;;;;;;;;;;;;4976906;28;20020;-66
2021/10/06 04:55:59;;;;;;;;;;;;;;;;;;4998961;28;19918;-66
2021/10/06 04:58:24;;;;;;;;;;;;;;;;;;5011615;28;19918;-66
2021/10/06 05:00:49;;;;;;;;;;;;;;;;;;5014052;28;19921;-66
2021/10/06 05:03:14;;;;;;;;;;;;;;;;;;5012337;28;19935;-66
2021/10/06 05:05:40;;;;;;;;;;;;;;;;;;4976252;28;19925;-66
2021/10/06 05:08:05;;;;;;;;;;;;;;;;;;5011220;28;20829;-66
2021/10/06 05:10:31;;;;;;;;;;;;;;;;;;4975734;28;19969;-67
2021/10/06 05:12:56;;;;;;;;;;;;;;;;;;5010178;28;19918;-66
2021/10/06 05:15:21;;;;;;;;;;;;;;;;;;5012494;28;19918;-66
2021/10/06 05:17:46;;;;;;;;;;;;;;;;;;5011954;28;19924;-66
2021/10/06 05:20:11;;;;;;;;;;;;;;;;;;5011861;28;19922;-66
2021/10/06 05:22:40;;;;;;;;;;;;;;;;;;5000920;28;19924;-66
2021/10/06 05:25:05;;;;;;;;;;;;;;;;;;4998816;28;20636;-66
2021/10/06 05:27:30;;;;;;;;;;;;;;;;;;5009286;28;19917;-67
2021/10/06 05:30:01;;;;;;;;;;;;;;;;;;5001930;28;19913;-66
2021/10/06 05:32:31;;;;;;;;;;;;;;;;;;5002893;28;19917;-66
2021/10/06 05:34:56;;;;;;;;;;;;;;;;;;5011108;28;19924;-67
2021/10/06 05:37:21;;;;;;;;;;;;;;;;;;5011926;28;19928;-66
2021/10/06 05:39:47;;;;;;;;;;;;;;;;;;4978901;28;19918;-67
2021/10/06 05:42:14;;;;;;;;;;;;;;;;;;5012939;28;20020;-66
2021/10/06 05:44:40;;;;;;;;;;;;;;;;;;4999290;28;20179;-67
2021/10/06 05:47:05;;;;;;;;;;;;;;;;;;5011814;28;19967;-67
2021/10/06 05:49:31;;;;;;;;;;;;;;;;;;4990914;28;20452;-66
2021/10/06 05:51:56;;;;;;;;;;;;;;;;;;4976322;28;19949;-66
2021/10/06 05:54:21;;;;;;;;;;;;;;;;;;4994043;28;19977;-67
2021/10/06 05:56:46;;;;;;;;;;;;;;;;;;5011455;28;20414;-67
2021/10/06 05:59:12;;;;;;;;;;;;;;;;;;4995723;28;19925;-67
2021/10/06 06:01:37;;;;;;;;;;;;;;;;;;5001214;28;19918;-66
2021/10/06 06:04:02;;;;;;;;;;;;;;;;;;4990450;28;19918;-66
2021/10/06 06:06:27;;;;;;;;;;;;;;;;;;5011613;28;19917;-67
2021/10/06 06:08:53;;;;;;;;;;;;;;;;;;5012544;28;20512;-66
2021/10/06 06:11:18;;;;;;;;;;;;;;;;;;4998582;28;19913;-66
2021/10/06 06:13:43;;;;;;;;;;;;;;;;;;5011202;28;20385;-68
2021/10/06 06:16:08;;;;;;;;;;;;;;;;;;5009759;28;20483;-66
2021/10/06 06:18:33;;;;;;;;;;;;;;;;;;5010836;28;20383;-66
2021/10/06 06:20:59;;;;;;;;;;;;;;;;;;5000318;28;19932;-66
2021/10/06 06:23:26;;;;;;;;;;;;;;;;;;4998079;28;19913;-67
2021/10/06 06:25:51;;;;;;;;;;;;;;;;;;5009218;28;20424;-66
2021/10/06 06:28:19;;;;;;;;;;;;;;;;;;4987706;28;19917;-70
2021/10/06 06:30:44;;;;;;;;;;;;;;;;;;4986389;28;19976;-71
2021/10/06 06:33:09;;;;;;;;;;;;;;;;;;5005969;28;19918;-70
2021/10/06 06:35:35;;;;;;;;;;;;;;;;;;4997061;28;19944;-69
2021/10/06 06:38:00;;;;;;;;;;;;;;;;;;4996616;28;19914;-70
2021/10/06 06:40:25;;;;;;;;;;;;;;;;;;4996231;28;19922;-68
2021/10/06 06:42:50;;;;;;;;;;;;;;;;;;5008637;28;19933;-68
2021/10/06 06:45:21;;;;;;;;;;;;;;;;;;4992351;28;19949;-69
2021/10/06 06:47:46;;;;;;;;;;;;;;;;;;5008215;28;19943;-69
2021/10/06 06:50:12;;;;;;;;;;;;;;;;;;5007688;28;19924;-70
2021/10/06 06:52:38;;;;;;;;;;;;;;;;;;4998197;28;19918;-68
2021/10/06 06:55:03;;;;;;;;;;;;;;;;;;4997797;28;19925;-70
2021/10/06 06:57:38;;;;;;;;;;;;;;;;;;4984963;28;19918;-69
2021/10/06 07:00:06;;;;;;;;;;;;;;;;;;5005666;28;19926;-68
2021/10/06 07:02:31;;;;;;;;;;;;;;;;;;5004589;28;19933;-68
2021/10/06 07:05:00;;;;;;;;;;;;;;;;;;4993432;28;19917;-68
2021/10/06 07:07:28;;;;;;;;;;;;;;;;;;4998251;28;20281;-68
2021/10/06 07:09:56;;;;;;;;;;;;;;;;;;5009743;28;20024;-68
2021/10/06 07:12:22;;;;;;;;;;;;;;;;;;4991969;28;19945;-67
2021/10/06 07:14:47;;;;;;;;;;;;;;;;;;5004681;28;20032;-68
2021/10/06 07:17:12;;;;;;;;;;;;;;;;;;4997836;28;20065;-67
2021/10/06 07:19:40;;;;;;;;;;;;;;;;;;4974328;28;20430;-68
2021/10/06 07:22:06;;;;;;;;;;;;;;;;;;4989441;28;19941;-68
2021/10/06 07:24:34;;;;;;;;;;;;;;;;;;4973211;28;19918;-69
2021/10/06 07:27:00;;;;;;;;;;;;;;;;;;5005180;28;19944;-69
2021/10/06 07:29:25;;;;;;;;;;;;;;;;;;5006671;28;20310;-67
2021/10/06 07:31:51;;;;;;;;;;;;;;;;;;4996728;28;19983;-69
2021/10/06 07:34:16;;;;;;;;;;;;;;;;;;4974031;28;19956;-68
2021/10/06 07:36:42;;;;;;;;;;;;;;;;;;4974301;28;20398;-69
2021/10/06 07:39:10;;;;;;;;;;;;;;;;;;4993857;28;19972;-69
2021/10/06 07:41:35;;;;;;;;;;;;;;;;;;5007718;28;19929;-69
2021/10/06 07:44:01;;;;;;;;;;;;;;;;;;4995843;28;19918;-69
2021/10/06 07:46:29;;;;;;;;;;;;;;;;;;4994938;28;19918;-69
2021/10/06 07:48:54;;;;;;;;;;;;;;;;;;5008260;28;20009;-68
2021/10/06 07:51:22;;;;;;;;;;;;;;;;;;5008500;28;20024;-68
2021/10/06 07:53:48;;;;;;;;;;;;;;;;;;4996724;28;19918;-68
2021/10/06 07:56:13;;;;;;;;;;;;;;;;;;4999569;28;20331;-68
2021/10/06 07:58:38;;;;;;;;;;;;;;;;;;5008930;28;19949;-68
2021/10/06 08:01:04;;;;;;;;;;;;;;;;;;4984431;28;20466;-67
2021/10/06 08:03:30;;;;;;;;;;;;;;;;;;4972736;28;19922;-67
2021/10/06 08:05:58;;;;;;;;;;;;;;;;;;4993671;28;19918;-68
2021/10/06 08:08:26;;;;;;;;;;;;;;;;;;4991175;28;19952;-66
2021/10/06 08:10:52;;;;;;;;;;;;;;;;;;4989175;28;19970;-68
2021/10/06 08:13:17;;;;;;;;;;;;;;;;;;4983452;28;20712;-67
2021/10/06 08:15:52;;;;;;;;;;;;;;;;;;4991447;28;19984;-67
2021/10/06 08:18:20;;;;;;;;;;;;;;;;;;4983873;28;19925;-67
2021/10/06 08:20:48;;;;;;;;;;;;;;;;;;5004057;28;19925;-67
2021/10/06 08:23:16;;;;;;;;;;;;;;;;;;4983727;28;19921;-68
2021/10/06 08:25:41;;;;;;;;;;;;;;;;;;5004402;28;19918;-68
2021/10/06 08:28:07;;;;;;;;;;;;;;;;;;4988713;28;20346;-67
2021/10/06 08:30:35;;;;;;;;;;;;;;;;;;4973765;28;19962;-67
2021/10/06 08:33:02;;;;;;;;;;;;;;;;;;5005214;28;19925;-68
2021/10/06 08:35:31;;;;;;;;;;;;;;;;;;4989676;28;19918;-67
2021/10/06 08:37:57;;;;;;;;;;;;;;;;;;5002182;28;19918;-67
2021/10/06 08:40:23;;;;;;;;;;;;;;;;;;4990818;28;19929;-67
2021/10/06 08:42:48;;;;;;;;;;;;;;;;;;4985897;28;19985;-67
2021/10/06 08:45:13;;;;;;;;;;;;;;;;;;4983531;28;19917;-67
2021/10/06 08:47:41;;;;;;;;;;;;;;;;;;4995586;28;19918;-67
2021/10/06 08:50:10;;;;;;;;;;;;;;;;;;4989233;28;19929;-67
2021/10/06 08:52:36;;;;;;;;;;;;;;;;;;4989261;28;20012;-67
2021/10/06 08:55:01;;;;;;;;;;;;;;;;;;4980932;28;19968;-67
2021/10/06 08:57:26;;;;;;;;;;;;;;;;;;4990766;28;19925;-67
2021/10/06 08:59:51;;;;;;;;;;;;;;;;;;4994732;28;19922;-67
2021/10/06 09:02:19;;;;;;;;;;;;;;;;;;4987354;28;19926;-67
2021/10/06 09:04:45;;;;;;;;;;;;;;;;;;4989404;28;19929;-67
2021/10/06 09:07:10;;;;;;;;;;;;;;;;;;4981259;28;20227;-67
2021/10/06 09:09:38;;;;;;;;;;;;;;;;;;4989490;28;20012;-69
2021/10/06 09:12:06;;;;;;;;;;;;;;;;;;4991238;28;19961;-70
2021/10/06 09:14:38;;;;;;;;;;;;;;;;;;4998628;28;19930;-68
2021/10/06 09:17:06;;;;;;;;;;;;;;;;;;4950181;28;20013;-67
2021/10/06 09:19:32;;;;;;;;;;;;;;;;;;4949585;28;19922;-67
2021/10/06 09:22:00;;;;;;;;;;;;;;;;;;4958449;28;20580;-67
2021/10/06 09:24:26;;;;;;;;;;;;;;;;;;4975002;28;20572;-68
2021/10/06 09:26:51;;;;;;;;;;;;;;;;;;4937560;28;19917;-68
2021/10/06 09:29:16;;;;;;;;;;;;;;;;;;4959275;28;19957;-68
2021/10/06 09:31:42;;;;;;;;;;;;;;;;;;4947606;28;19917;-68
2021/10/06 09:34:07;;;;;;;;;;;;;;;;;;4962109;28;19937;-68
2021/10/06 09:36:42;;;;;;;;;;;;;;;;;;4968723;28;20812;-67
2021/10/06 09:39:10;;;;;;;;;;;;;;;;;;4955955;28;20028;-68
2021/10/06 09:41:35;;;;;;;;;;;;;;;;;;4960359;28;19928;-67
2021/10/06 09:44:01;;;;;;;;;;;;;;;;;;4952689;28;19925;-67
2021/10/06 09:46:26;;;;;;;;;;;;;;;;;;4958425;28;19921;-68
2021/10/06 09:48:54;;;;;;;;;;;;;;;;;;4955267;28;19945;-67
2021/10/06 09:51:19;;;;;;;;;;;;;;;;;;4978836;28;19957;-68
2021/10/06 09:53:45;;;;;;;;;;;;;;;;;;4947829;28;19926;-68
2021/10/06 09:56:10;;;;;;;;;;;;;;;;;;4954093;28;20058;-68
2021/10/06 09:58:35;;;;;;;;;;;;;;;;;;4947577;28;20291;-67
2021/10/06 10:01:03;;;;;;;;;;;;;;;;;;4962653;28;20449;-68
2021/10/06 10:03:40;;;;;;;;;;;;;;;;;;4957942;28;20039;-68
2021/10/06 10:06:14;;;;;;;;;;;;;;;;;;4945606;28;19964;-68
2021/10/06 10:08:40;;;;;;;;;;;;;;;;;;4951264;28;19941;-68
2021/10/06 10:11:07;;;;;;;;;;;;;;;;;;4961527;28;19917;-68
2021/10/06 10:13:33;;;;;;;;;;;;;;;;;;4958928;28;19921;-69
2021/10/06 10:15:59;;;;;;;;;;;;;;;;;;4951687;28;19917;-68
2021/10/06 10:18:26;;;;;;;;;;;;;;;;;;4960156;28;19968;-68
2021/10/06 10:20:52;;;;;;;;;;;;;;;;;;4952260;28;19922;-68
2021/10/06 10:23:17;;;;;;;;;;;;;;;;;;4951160;28;19988;-69
2021/10/06 10:25:45;;;;;;;;;;;;;;;;;;4953567;28;19917;-68
2021/10/06 10:28:10;;;;;;;;;;;;;;;;;;4932024;28;20318;-68
2021/10/06 10:30:38;;;;;;;;;;;;;;;;;;4934909;28;19922;-68
2021/10/06 10:33:06;;;;;;;;;;;;;;;;;;4957875;28;19929;-69
2021/10/06 10:35:38;;;;;;;;;;;;;;;;;;4940456;28;19925;-69
2021/10/06 10:38:04;;;;;;;;;;;;;;;;;;4944913;28;19925;-68
2021/10/06 10:40:29;;;;;;;;;;;;;;;;;;4968604;28;19984;-68
2021/10/06 10:42:54;;;;;;;;;;;;;;;;;;4976114;28;19961;-68
2021/10/06 10:45:19;;;;;;;;;;;;;;;;;;4973435;28;19922;-69
2021/10/06 10:47:45;;;;;;;;;;;;;;;;;;4950948;28;19930;-67
2021/10/06 10:50:10;;;;;;;;;;;;;;;;;;4969781;28;19928;-67
2021/10/06 10:52:41;;;;;;;;;;;;;;;;;;4972419;28;19953;-69
2021/10/06 10:55:07;;;;;;;;;;;;;;;;;;4958382;28;19945;-67
2021/10/06 10:57:34;;;;;;;;;;;;;;;;;;4959306;28;19929;-68
2021/10/06 11:00:00;;;;;;;;;;;;;;;;;;4950739;28;19926;-67
2021/10/06 11:02:28;;;;;;;;;;;;;;;;;;4976118;28;19937;-68
2021/10/06 11:04:53;;;;;;;;;;;;;;;;;;4969954;28;21718;-67
2021/10/06 11:07:18;;;;;;;;;;;;;;;;;;4959454;28;19922;-67
2021/10/06 11:09:43;;;;;;;;;;;;;;;;;;4965195;28;20270;-68
2021/10/06 11:12:09;;;;;;;;;;;;;;;;;;4963368;28;19921;-67
2021/10/06 11:14:34;;;;;;;;;;;;;;;;;;4961219;28;19952;-67
2021/10/06 11:16:59;;;;;;;;;;;;;;;;;;4956917;28;20845;-67
2021/10/06 11:19:27;;;;;;;;;;;;;;;;;;4958418;28;19932;-68
2021/10/06 11:21:53;;;;;;;;;;;;;;;;;;4959273;28;21359;-67
2021/10/06 11:24:18;;;;;;;;;;;;;;;;;;4956156;28;20218;-67
2021/10/06 11:26:43;;;;;;;;;;;;;;;;;;4957050;28;20295;-68
2021/10/06 11:29:09;;;;;;;;;;;;;;;;;;4962888;28;20522;-68
2021/10/06 11:31:34;;;;;;;;;;;;;;;;;;4958593;28;20513;-67
2021/10/06 11:33:59;;;;;;;;;;;;;;;;;;4959631;28;19921;-67
2021/10/06 11:36:25;;;;;;;;;;;;;;;;;;4962679;28;19962;-67
2021/10/06 11:38:50;;;;;;;;;;;;;;;;;;4961734;28;20371;-67
2021/10/06 11:41:15;;;;;;;;;;;;;;;;;;4971877;28;20004;-67
2021/10/06 11:43:40;;;;;;;;;;;;;;;;;;4959354;28;20400;-67
2021/10/06 11:46:09;;;;;;;;;;;;;;;;;;4957824;28;20045;-67
2021/10/06 11:48:34;;;;;;;;;;;;;;;;;;4958279;28;19922;-67
2021/10/06 11:50:59;;;;;;;;;;;;;;;;;;4954039;28;19930;-67
2021/10/06 11:53:24;;;;;;;;;;;;;;;;;;4956102;28;20040;-66
2021/10/06 11:55:50;;;;;;;;;;;;;;;;;;4966512;28;20038;-67
2021/10/06 11:58:15;;;;;;;;;;;;;;;;;;4960247;28;19917;-66
2021/10/06 12:00:41;;;;;;;;;;;;;;;;;;4945440;28;19922;-67
2021/10/06 12:03:07;;;;;;;;;;;;;;;;;;4969895;28;20495;-67
2021/10/06 12:05:32;;;;;;;;;;;;;;;;;;4963935;28;19981;-67
2021/10/06 12:07:58;;;;;;;;;;;;;;;;;;4972940;28;19940;-67
2021/10/06 12:10:23;;;;;;;;;;;;;;;;;;4984672;28;19917;-67
2021/10/06 12:12:48;;;;;;;;;;;;;;;;;;4973507;28;19921;-67
2021/10/06 12:15:13;;;;;;;;;;;;;;;;;;4963124;28;19921;-67
2021/10/06 12:17:38;;;;;;;;;;;;;;;;;;4973887;28;20222;-67
2021/10/06 12:20:04;;;;;;;;;;;;;;;;;;4963913;28;19949;-68
2021/10/06 12:22:29;;;;;;;;;;;;;;;;;;4983695;28;19926;-68
2021/10/06 12:24:54;;;;;;;;;;;;;;;;;;4973713;28;19922;-68
2021/10/06 12:27:20;;;;;;;;;;;;;;;;;;4985237;28;20438;-67
2021/10/06 12:29:45;;;;;;;;;;;;;;;;;;4977294;28;19960;-67
2021/10/06 12:32:14;;;;;;;;;;;;;;;;;;4976300;28;20226;-67
2021/10/06 12:34:39;;;;;;;;;;;;;;;;;;4975152;28;19922;-67
2021/10/06 12:37:04;;;;;;;;;;;;;;;;;;4975105;28;20079;-68
2021/10/06 12:39:29;;;;;;;;;;;;;;;;;;4995144;28;20414;-67
2021/10/06 12:41:55;;;;;;;;;;;;;;;;;;4987833;28;20616;-68
2021/10/06 12:44:20;;;;;;;;;;;;;;;;;;4983417;28;19918;-67
2021/10/06 12:46:45;;;;;;;;;;;;;;;;;;4988030;28;19976;-67
2021/10/06 12:49:10;;;;;;;;;;;;;;;;;;4970712;28;19993;-68
2021/10/06 12:51:36;;;;;;;;;;;;;;;;;;4996845;28;20036;-67
2021/10/06 12:54:01;;;;;;;;;;;;;;;;;;4999781;28;19972;-67
2021/10/06 12:56:27;;;;;;;;;;;;;;;;;;5009678;28;20008;-67
2021/10/06 12:58:53;;;;;;;;;;;;;;;;;;5013651;28;20197;-67
2021/10/06 13:01:18;;;;;;;;;;;;;;;;;;5014726;28;19925;-67
2021/10/06 13:03:43;;;;;;;;;;;;;;;;;;5012757;28;20395;-68
2021/10/06 13:06:09;;;;;;;;;;;;;;;;;;5013940;28;20358;-67
2021/10/06 13:08:35;;;;;;;;;;;;;;;;;;5014438;28;19949;-67
2021/10/06 13:11:00;;;;;;;;;;;;;;;;;;4985148;28;20309;-66
2021/10/06 13:13:25;;;;;;;;;;;;;;;;;;5014781;28;20031;-67
2021/10/06 13:15:50;;;;;;;;;;;;;;;;;;5002522;28;19968;-67
2021/10/06 13:18:16;;;;;;;;;;;;;;;;;;5014551;28;19917;-67
2021/10/06 13:20:41;;;;;;;;;;;;;;;;;;5013582;28;19948;-67
2021/10/06 13:23:06;;;;;;;;;;;;;;;;;;5015306;28;19922;-67
2021/10/06 13:25:31;;;;;;;;;;;;;;;;;;5001751;28;19925;-67
2021/10/06 13:27:57;;;;;;;;;;;;;;;;;;5012816;28;19960;-67
2021/10/06 13:30:22;;;;;;;;;;;;;;;;;;5013271;28;20227;-67
2021/10/06 13:32:47;;;;;;;;;;;;;;;;;;5003603;28;20024;-68
2021/10/06 13:35:12;;;;;;;;;;;;;;;;;;5014285;28;19973;-67
2021/10/06 13:37:37;;;;;;;;;;;;;;;;;;5008675;28;19917;-68
2021/10/06 13:40:03;;;;;;;;;;;;;;;;;;5013341;28;19921;-68
2021/10/06 13:42:28;;;;;;;;;;;;;;;;;;5012030;28;19989;-68
2021/10/06 13:44:53;;;;;;;;;;;;;;;;;;5015165;28;19969;-68
2021/10/06 13:47:19;;;;;;;;;;;;;;;;;;5012594;28;20200;-68
2021/10/06 13:49:44;;;;;;;;;;;;;;;;;;5012823;28;19918;-68
2021/10/06 13:52:09;;;;;;;;;;;;;;;;;;5011236;28;19925;-70
2021/10/06 13:54:34;;;;;;;;;;;;;;;;;;5001360;28;20378;-70
2021/10/06 13:57:00;;;;;;;;;;;;;;;;;;5013325;28;20310;-68
2021/10/06 13:59:25;;;;;;;;;;;;;;;;;;5012990;28;20013;-69
2021/10/06 14:01:50;;;;;;;;;;;;;;;;;;5012339;28;19927;-68
2021/10/06 14:04:15;;;;;;;;;;;;;;;;;;5013205;28;19928;-67
2021/10/06 14:06:44;;;;;;;;;;;;;;;;;;5013619;28;19948;-71
2021/10/06 14:09:09;;;;;;;;;;;;;;;;;;5009373;28;20553;-68
2021/10/06 14:11:34;;;;;;;;;;;;;;;;;;5011457;28;20346;-68
2021/10/06 14:13:59;;;;;;;;;;;;;;;;;;4996736;28;19918;-68
2021/10/06 14:16:25;;;;;;;;;;;;;;;;;;5010892;28;20009;-68
2021/10/06 14:18:50;;;;;;;;;;;;;;;;;;5009519;28;19918;-68
2021/10/06 14:21:15;;;;;;;;;;;;;;;;;;5012030;28;20176;-68
2021/10/06 14:23:40;;;;;;;;;;;;;;;;;;5014289;28;19914;-68
2021/10/06 14:26:06;;;;;;;;;;;;;;;;;;5010861;28;19993;-68
2021/10/06 14:28:31;;;;;;;;;;;;;;;;;;5014038;28;20012;-67
2021/10/06 14:30:57;;;;;;;;;;;;;;;;;;5013358;28;19919;-68
2021/10/06 14:33:22;;;;;;;;;;;;;;;;;;5012193;28;19981;-67
2021/10/06 14:35:48;;;;;;;;;;;;;;;;;;4995328;28;19944;-67
2021/10/06 14:38:13;;;;;;;;;;;;;;;;;;5011064;28;20393;-70
2021/10/06 14:40:38;;;;;;;;;;;;;;;;;;5012763;28;19932;-68
2021/10/06 14:43:03;;;;;;;;;;;;;;;;;;5011656;28;19926;-68
2021/10/06 14:45:28;;;;;;;;;;;;;;;;;;5014344;28;19972;-68
2021/10/06 14:47:55;;;;;;;;;;;;;;;;;;5016336;28;19985;-68
2021/10/06 14:50:20;;;;;;;;;;;;;;;;;;5016500;28;19921;-68
2021/10/06 14:52:45;;;;;;;;;;;;;;;;;;5005434;28;19921;-68
2021/10/06 14:55:11;;;;;;;;;;;;;;;;;;5013706;28;19921;-68
2021/10/06 14:57:36;;;;;;;;;;;;;;;;;;4997763;28;19925;-69
2021/10/06 15:00:01;;;;;;;;;;;;;;;;;;5005257;28;19957;-70
2021/10/06 15:02:26;;;;;;;;;;;;;;;;;;4997320;28;19945;-69
2021/10/06 15:04:51;;;;;;;;;;;;;;;;;;4995386;28;19918;-69
2021/10/06 15:07:17;;;;;;;;;;;;;;;;;;4997225;28;19946;-69
2021/10/06 15:09:44;;;;;;;;;;;;;;;;;;4997697;28;19914;-67
2021/10/06 15:12:10;;;;;;;;;;;;;;;;;;4994389;28;19918;-68
2021/10/06 15:14:35;;;;;;;;;;;;;;;;;;4994668;28;19921;-68
2021/10/06 15:17:01;;;;;;;;;;;;;;;;;;4995907;28;19926;-68
2021/10/06 15:19:27;;;;;;;;;;;;;;;;;;5001773;28;20024;-68
2021/10/06 15:21:52;;;;;;;;;;;;;;;;;;5000582;28;19926;-68
2021/10/06 15:24:17;;;;;;;;;;;;;;;;;;4997431;28;19918;-69
2021/10/06 15:26:47;;;;;;;;;;;;;;;;;;5015663;28;19918;-68
2021/10/06 15:29:13;;;;;;;;;;;;;;;;;;4993204;28;20247;-69
2021/10/06 15:31:38;;;;;;;;;;;;;;;;;;4994566;28;19986;-69
2021/10/06 15:34:03;;;;;;;;;;;;;;;;;;4976062;28;19918;-69
2021/10/06 15:36:28;;;;;;;;;;;;;;;;;;4997662;28;19940;-69
2021/10/06 15:38:54;;;;;;;;;;;;;;;;;;4996855;28;19918;-70
2021/10/06 15:41:19;;;;;;;;;;;;;;;;;;5018581;28;20152;-70
2021/10/06 15:43:44;;;;;;;;;;;;;;;;;;5000245;28;20259;-71
2021/10/06 15:46:09;;;;;;;;;;;;;;;;;;4998870;28;19918;-70
2021/10/06 15:48:35;;;;;;;;;;;;;;;;;;4996054;28;19918;-71
2021/10/06 15:51:00;;;;;;;;;;;;;;;;;;4995724;28;19918;-70
2021/10/06 15:53:25;;;;;;;;;;;;;;;;;;4994620;28;20319;-70
2021/10/06 15:55:50;;;;;;;;;;;;;;;;;;4993397;28;19941;-70
2021/10/06 15:58:18;;;;;;;;;;;;;;;;;;5001046;28;19917;-71
2021/10/06 16:00:43;;;;;;;;;;;;;;;;;;4996244;28;20056;-70
2021/10/06 16:03:08;;;;;;;;;;;;;;;;;;5010488;28;19925;-70
2021/10/06 16:05:34;;;;;;;;;;;;;;;;;;5003019;28;19917;-70
2021/10/06 16:07:59;;;;;;;;;;;;;;;;;;5014934;28;19920;-70
2021/10/06 16:10:25;;;;;;;;;;;;;;;;;;5015135;28;19917;-70
2021/10/06 16:12:50;;;;;;;;;;;;;;;;;;5020895;28;19918;-70
2021/10/06 16:15:17;;;;;;;;;;;;;;;;;;5004388;28;20029;-70
2021/10/06 16:17:42;;;;;;;;;;;;;;;;;;5003210;28;19925;-70
2021/10/06 16:20:08;;;;;;;;;;;;;;;;;;5019206;28;19925;-70
2021/10/06 16:22:33;;;;;;;;;;;;;;;;;;5020107;28;19928;-71
2021/10/06 16:25:01;;;;;;;;;;;;;;;;;;5014770;28;19917;-70
2021/10/06 16:27:29;;;;;;;;;;;;;;;;;;5005408;28;19917;-70
2021/10/06 16:29:54;;;;;;;;;;;;;;;;;;4983570;28;19945;-71
2021/10/06 16:32:19;;;;;;;;;;;;;;;;;;5005362;28;19940;-71
2021/10/06 16:34:44;;;;;;;;;;;;;;;;;;5017000;28;19941;-70
2021/10/06 16:37:10;;;;;;;;;;;;;;;;;;5016740;28;19969;-70